< < Back
Terminal Aerodrome Forecast


Current Version              Previous Versions:   1  2  3  4  5  6  7  8  9  

Terminal Aerodrome Forecast

021
FTUS44 KBMX 132335
TAFMGM
TAF
KMGM 132335Z 1400/1424 35004KT P6SM SKC
     FM141500 15007KT P6SM SCT250=



Latest METAR

656
SAUS80 KWBC 132300 CCA
MTRMGM
METAR KMGM 132253Z 36008KT 10SM CLR 10/M13 A3037 RMK AO2 SLP285
T01001128


USA.gov is the U.S. government's official web portal to all federal, state and local government web resources and services.